Skip Navigation LinksHome page > Weather > Current weather Skip Navigation Links

Current Weather

Central Park, New York

For information only: do not use for flight planning or navigation.
Latest weather
Observation time Monday, June 21, 2021 7:51 PM EDT
Local time Monday, June 21, 2021 8:35 PM EDT
Flight conditions Visual Meteorological Conditions
Winds
Wind direction variable
Wind speed 7 mph
Visibility 10 mi.
Sky condition
Ceiling unlimited
Sky clear
Temperature 81°F
Dewpoint 70°F
Altimeter 29.62 in.Hg
Pressure change last 3 hours0.02 in.Hg
Pressure falling, then rising
Derived measurements
Relative humidity 69%
Heat index 84°F
Density altitude 2246 ft.
Sea-level pressure 29.59 in.Hg
Climate data
Temperature minimum, last 6 hours 80°F
Temperature maximum, last 6 hours 86°F
Remarks
Fully automated report.
System requires maintenance.
Automated weather observing station with precipitation discriminator.
METAR KNYC 212351Z AUTO VRB06KT 10SM CLR 27/21 A2962 RMK AO2 SLP021 T02720211 10300 20267 55007 $

Settings

Location code

InnerDrive.Weather 4.0.6770.0 Release CLR 4.0.30319.42000
Copyright ©2018 Inner Drive Technology. All rights reserved. Portions Copyright ©1986-2018 David Braverman.

Find weather

Site navigation


Skip Navigation Links

Place info

Page info

PayPal - The safer, easier way to pay online!

Return home.

Copyright ©2021 Inner Drive Technology. Purveyors of fine, hand-crafted computer software. Page printed 2021-06-22T00:35:08 UTC.